createdAt,value
2019-04-25T00:01:03.424Z,99.90
2019-04-25T00:03:36.799Z,99.90
2019-04-25T00:06:09.748Z,99.90
2019-04-25T00:08:43.065Z,99.90
2019-04-25T00:11:14.724Z,99.90
2019-04-25T00:13:46.036Z,99.90
2019-04-25T00:16:19.150Z,99.90
2019-04-25T00:18:51.706Z,99.90
2019-04-25T00:21:31.790Z,99.90
2019-04-25T00:24:08.629Z,99.90
2019-04-25T00:26:45.165Z,99.90
2019-04-25T00:29:17.745Z,99.90
2019-04-25T00:31:49.329Z,99.90
2019-04-25T00:34:21.850Z,99.90
2019-04-25T00:36:53.323Z,99.90
2019-04-25T00:39:26.180Z,99.90
2019-04-25T00:41:58.023Z,99.90
2019-04-25T00:44:29.388Z,99.90
2019-04-25T00:47:02.268Z,99.90
2019-04-25T00:49:34.093Z,99.90
2019-04-25T00:52:05.439Z,99.90
2019-04-25T00:54:36.741Z,99.90
2019-04-25T00:57:08.128Z,99.90
2019-04-25T00:59:45.689Z,99.90
2019-04-25T01:02:27.905Z,99.90
2019-04-25T01:04:59.341Z,99.90
2019-04-25T01:07:32.438Z,99.90
2019-04-25T01:10:05.266Z,99.90
2019-04-25T01:12:36.864Z,99.90
2019-04-25T01:15:11.598Z,99.90
2019-04-25T01:17:45.297Z,99.90
2019-04-25T01:20:17.911Z,99.90
2019-04-25T01:22:49.351Z,99.90
2019-04-25T01:25:23.377Z,99.90
2019-04-25T01:27:55.005Z,99.90
2019-04-25T01:30:27.977Z,99.90
2019-04-25T01:32:59.427Z,99.90
2019-04-25T01:35:36.758Z,99.90
2019-04-25T01:38:18.208Z,99.90
2019-04-25T01:40:57.375Z,99.90
2019-04-25T01:44:00.074Z,99.90
2019-04-25T01:46:32.308Z,99.90
2019-04-25T01:49:04.355Z,99.90
2019-04-25T01:51:36.312Z,99.90
2019-04-25T01:54:07.680Z,99.90
2019-04-25T01:56:39.334Z,99.90
2019-04-25T01:59:11.265Z,99.90
2019-04-25T02:01:44.036Z,99.90
2019-04-25T02:04:15.623Z,99.90
2019-04-25T02:06:47.035Z,99.90
2019-04-25T02:09:20.293Z,99.90
2019-04-25T02:12:04.807Z,99.90
2019-04-25T02:14:36.326Z,99.90
2019-04-25T02:17:07.731Z,99.90
2019-04-25T02:19:39.204Z,99.90
2019-04-25T02:22:10.924Z,99.90
2019-04-25T02:24:55.843Z,99.90
2019-04-25T02:27:28.451Z,99.90
2019-04-25T02:30:01.030Z,99.90
2019-04-25T02:32:34.464Z,99.90
2019-04-25T02:35:09.359Z,99.90
2019-04-25T02:37:40.755Z,99.90
2019-04-25T02:40:14.141Z,99.90
2019-04-25T02:42:45.764Z,99.90
2019-04-25T02:45:48.273Z,99.90
2019-04-25T02:48:38.916Z,99.90
2019-04-25T02:51:26.670Z,99.90
2019-04-25T02:53:59.502Z,99.90
2019-04-25T02:56:37.596Z,99.90
2019-04-25T02:59:08.450Z,99.90
2019-04-25T03:01:38.874Z,99.90
2019-04-25T03:04:11.355Z,99.90
2019-04-25T03:06:45.246Z,99.90
2019-04-25T03:09:16.856Z,99.90
2019-04-25T03:11:48.614Z,99.90
2019-04-25T03:14:19.938Z,99.90
2019-04-25T03:16:54.339Z,99.90
2019-04-25T03:19:34.223Z,99.90
2019-04-25T03:22:11.063Z,99.90
2019-04-25T03:24:40.180Z,99.90
2019-04-25T03:27:12.034Z,99.90
2019-04-25T03:29:55.163Z,99.90
2019-04-25T03:32:28.455Z,99.90
2019-04-25T03:35:00.511Z,99.90
2019-04-25T03:37:33.068Z,99.90
2019-04-25T03:40:06.621Z,99.90
2019-04-25T03:42:39.618Z,99.90
2019-04-25T03:45:13.761Z,99.90
2019-04-25T03:47:45.759Z,99.90
2019-04-25T03:50:17.344Z,99.90
2019-04-25T03:52:48.760Z,99.90
2019-04-25T03:55:20.297Z,99.90
2019-04-25T03:57:51.627Z,99.90
2019-04-25T04:00:24.120Z,99.90
2019-04-25T04:02:55.546Z,99.90
2019-04-25T04:05:27.297Z,99.90
2019-04-25T04:07:58.980Z,99.90
2019-04-25T04:10:30.191Z,99.90
2019-04-25T04:13:01.582Z,99.90
2019-04-25T04:15:33.591Z,99.90
2019-04-25T04:18:17.257Z,99.90
2019-04-25T04:21:16.185Z,99.90
2019-04-25T04:24:04.371Z,99.90
2019-04-25T04:26:35.846Z,99.90
2019-04-25T04:29:07.816Z,99.90
2019-04-25T04:31:39.345Z,99.90
2019-04-25T04:34:10.678Z,99.90
2019-04-25T04:36:43.689Z,99.90
2019-04-25T04:39:16.810Z,99.90
2019-04-25T04:41:48.035Z,99.90
2019-04-25T04:44:19.350Z,99.90
2019-04-25T04:46:50.718Z,99.90
2019-04-25T04:49:23.504Z,99.90
2019-04-25T04:51:56.685Z,99.90
2019-04-25T04:54:28.012Z,99.90
2019-04-25T04:56:59.448Z,99.90
2019-04-25T04:59:31.061Z,99.90
2019-04-25T05:02:24.750Z,99.90
2019-04-25T05:05:24.811Z,99.90
2019-04-25T05:08:18.767Z,99.90
2019-04-25T05:10:50.251Z,99.90
2019-04-25T05:13:22.063Z,99.90
2019-04-25T05:15:53.403Z,99.90
2019-04-25T05:18:34.625Z,99.90
2019-04-25T05:20:57.990Z,99.90
2019-04-25T05:23:29.194Z,99.90
2019-04-25T05:26:00.606Z,99.90
2019-04-25T05:28:33.306Z,99.90
2019-04-25T05:31:19.294Z,99.90
2019-04-25T05:33:50.807Z,99.90
2019-04-25T05:36:23.864Z,99.90
2019-04-25T05:38:55.563Z,99.90
2019-04-25T05:41:38.925Z,99.90
2019-04-25T05:44:10.265Z,99.90
2019-04-25T05:46:41.643Z,99.90
2019-04-25T05:49:13.858Z,99.90
2019-04-25T05:51:45.276Z,99.90
2019-04-25T05:54:16.589Z,99.90
2019-04-25T05:56:47.807Z,99.90
2019-04-25T05:59:19.523Z,99.90
2019-04-25T06:01:50.894Z,99.90
2019-04-25T06:04:24.643Z,99.90
2019-04-25T06:06:55.713Z,99.90
2019-04-25T06:09:48.833Z,99.90
2019-04-25T06:12:28.034Z,99.90
2019-04-25T06:14:59.419Z,99.90
2019-04-25T06:17:38.881Z,99.90
2019-04-25T06:20:13.448Z,99.90
2019-04-25T06:22:58.636Z,99.90
2019-04-25T06:25:36.318Z,99.90
2019-04-25T06:28:05.836Z,99.90
2019-04-25T06:30:37.361Z,99.90
2019-04-25T06:33:09.180Z,99.90
2019-04-25T06:35:40.613Z,99.90
2019-04-25T06:38:13.361Z,99.90
2019-04-25T06:40:44.888Z,99.90
2019-04-25T06:43:16.389Z,99.90
2019-04-25T06:45:55.703Z,99.90
2019-04-25T06:48:45.970Z,99.90
2019-04-25T06:51:17.335Z,99.90
2019-04-25T06:53:48.693Z,99.90
2019-04-25T06:56:20.054Z,99.90
2019-04-25T06:58:51.340Z,98.80
2019-04-25T07:01:25.113Z,98.60
2019-04-25T07:03:55.882Z,95.50
2019-04-25T07:06:27.294Z,98.40
2019-04-25T07:08:58.655Z,99.00
2019-04-25T07:11:30.511Z,93.80
2019-04-25T07:14:01.723Z,95.10
2019-04-25T07:16:34.423Z,90.90
2019-04-25T07:19:06.653Z,91.40
2019-04-25T07:21:38.052Z,91.40
2019-04-25T07:24:09.474Z,88.20
2019-04-25T07:27:03.801Z,88.40
2019-04-25T07:29:51.827Z,84.70
2019-04-25T07:32:35.774Z,90.50
2019-04-25T07:35:07.817Z,80.10
2019-04-25T07:37:41.474Z,74.10
2019-04-25T07:40:13.901Z,86.20
2019-04-25T07:42:45.463Z,75.60
2019-04-25T07:45:18.799Z,73.80
2019-04-25T07:47:50.234Z,74.50
2019-04-25T07:50:21.883Z,69.40
2019-04-25T07:52:53.842Z,71.30
2019-04-25T07:55:25.506Z,70.40
2019-04-25T07:57:56.881Z,70.10
2019-04-25T08:00:29.656Z,68.40
2019-04-25T08:03:01.074Z,65.50
2019-04-25T08:05:35.310Z,69.50
2019-04-25T08:08:05.687Z,60.80
2019-04-25T08:10:59.576Z,64.30
2019-04-25T08:13:39.866Z,60.30
2019-04-25T08:16:14.575Z,60.70
2019-04-25T08:18:47.924Z,60.10
2019-04-25T08:21:19.622Z,59.70
2019-04-25T08:23:53.325Z,61.60
2019-04-25T08:26:25.750Z,61.10
2019-04-25T08:28:57.879Z,65.50
2019-04-25T08:31:30.367Z,60.00
2019-04-25T08:34:03.612Z,59.30
2019-04-25T08:36:37.094Z,55.60
2019-04-25T08:39:11.297Z,58.10
2019-04-25T08:41:45.358Z,59.60
2019-04-25T08:44:16.090Z,60.00
2019-04-25T08:46:48.800Z,56.20
2019-04-25T08:49:38.399Z,55.40
2019-04-25T08:52:10.436Z,57.20
2019-04-25T08:55:00.929Z,56.80
2019-04-25T08:57:51.765Z,53.80
2019-04-25T09:00:36.151Z,57.80
2019-04-25T09:03:11.407Z,56.80
2019-04-25T09:05:46.243Z,55.40
2019-04-25T09:08:18.168Z,56.40
2019-04-25T09:10:49.520Z,54.10
2019-04-25T09:13:21.039Z,55.10
2019-04-25T09:15:54.017Z,56.60
2019-04-25T09:18:25.917Z,53.20
2019-04-25T09:20:57.283Z,57.60
2019-04-25T09:23:29.736Z,56.30
2019-04-25T09:26:01.207Z,53.20
2019-04-25T09:28:35.053Z,55.00
2019-04-25T09:31:05.996Z,56.50
2019-04-25T09:33:37.626Z,51.40
2019-04-25T09:36:09.706Z,52.00
2019-04-25T09:38:41.157Z,52.70
2019-04-25T09:41:13.980Z,50.30
2019-04-25T09:43:46.884Z,52.90
2019-04-25T09:46:31.357Z,49.10
2019-04-25T09:49:08.607Z,51.50
2019-04-25T09:51:44.616Z,50.70
2019-04-25T09:54:34.021Z,49.00
2019-04-25T09:57:34.143Z,50.10
2019-04-25T10:00:09.777Z,50.90
2019-04-25T10:02:41.224Z,47.50
2019-04-25T10:05:13.964Z,49.40
2019-04-25T10:07:46.314Z,47.20
2019-04-25T10:10:18.832Z,47.70
2019-04-25T10:12:50.966Z,47.40
2019-04-25T10:15:59.599Z,48.90
2019-04-25T10:18:33.465Z,49.20
2019-04-25T10:21:08.490Z,48.10
2019-04-25T10:23:42.134Z,44.50
2019-04-25T10:26:14.447Z,45.60
2019-04-25T10:28:45.874Z,46.60
2019-04-25T10:31:17.148Z,46.90
2019-04-25T10:33:48.701Z,48.00
2019-04-25T10:36:20.891Z,45.70
2019-04-25T10:39:04.281Z,46.50
2019-04-25T10:41:25.442Z,45.60
2019-04-25T10:43:57.067Z,45.80
2019-04-25T10:46:28.612Z,46.20
2019-04-25T10:49:00.052Z,44.30
2019-04-25T10:51:31.577Z,46.40
2019-04-25T10:54:04.182Z,44.50
2019-04-25T10:56:35.810Z,44.60
2019-04-25T10:59:07.257Z,46.10
2019-04-25T11:01:38.710Z,44.00
2019-04-25T11:04:29.014Z,40.30
2019-04-25T11:07:00.762Z,40.80
2019-04-25T11:09:33.775Z,41.80
2019-04-25T11:12:08.741Z,40.40
2019-04-25T11:14:40.919Z,39.60
2019-04-25T11:17:13.192Z,43.00
2019-04-25T11:19:45.475Z,42.40
2019-04-25T11:22:16.989Z,42.90
2019-04-25T11:24:48.662Z,41.90
2019-04-25T11:27:20.574Z,41.70
2019-04-25T11:29:53.548Z,39.50
2019-04-25T11:32:28.373Z,41.90
2019-04-25T11:34:59.958Z,40.90
2019-04-25T11:37:34.296Z,40.30
2019-04-25T11:40:19.502Z,41.60
2019-04-25T11:42:51.217Z,39.50
2019-04-25T11:45:23.669Z,39.60
2019-04-25T11:47:56.164Z,41.70
2019-04-25T11:50:28.473Z,39.30
2019-04-25T11:53:00.919Z,38.20
2019-04-25T11:55:32.961Z,39.00
2019-04-25T11:58:04.516Z,39.80
2019-04-25T12:00:36.787Z,40.70
2019-04-25T12:03:08.210Z,39.80
2019-04-25T12:05:39.720Z,41.60
2019-04-25T12:08:13.469Z,38.40
2019-04-25T12:10:45.781Z,38.20
2019-04-25T12:13:20.427Z,38.70
2019-04-25T12:15:51.932Z,37.70
2019-04-25T12:18:23.650Z,38.70
2019-04-25T12:20:57.973Z,39.00
2019-04-25T12:23:30.174Z,39.30
2019-04-25T12:26:01.521Z,38.30
2019-04-25T12:28:33.889Z,40.00
2019-04-25T12:31:05.340Z,41.40
2019-04-25T12:33:37.085Z,39.50
2019-04-25T12:36:08.526Z,40.40
2019-04-25T12:38:40.546Z,37.70
2019-04-25T12:41:11.825Z,38.80
2019-04-25T12:43:48.346Z,41.60
2019-04-25T12:46:26.061Z,37.30
2019-04-25T12:48:57.725Z,36.20
2019-04-25T12:51:29.154Z,37.00
2019-04-25T12:54:00.698Z,37.00
2019-04-25T12:56:32.172Z,38.90
2019-04-25T12:59:04.592Z,37.60
2019-04-25T13:01:36.185Z,36.50
2019-04-25T13:04:07.633Z,37.00
2019-04-25T13:06:39.059Z,37.20
2019-04-25T13:09:13.274Z,37.00
2019-04-25T13:11:44.785Z,37.60
2019-04-25T13:14:16.293Z,38.80
2019-04-25T13:16:47.573Z,39.00
2019-04-25T13:19:23.965Z,37.60
2019-04-25T13:21:52.168Z,37.70
2019-04-25T13:24:23.613Z,37.50
2019-04-25T13:27:03.961Z,35.70
2019-04-25T13:29:45.361Z,36.80
2019-04-25T13:32:27.927Z,35.10
2019-04-25T13:35:00.975Z,33.80
2019-04-25T13:37:34.095Z,33.20
2019-04-25T13:40:06.373Z,33.90
2019-04-25T13:42:40.693Z,31.90
2019-04-25T13:45:14.310Z,33.90
2019-04-25T13:47:45.753Z,33.30
2019-04-25T13:50:17.919Z,35.00
2019-04-25T13:52:49.177Z,34.30
2019-04-25T13:55:21.321Z,35.80
2019-04-25T13:57:54.670Z,35.80
2019-04-25T14:00:27.791Z,35.40
2019-04-25T14:03:03.029Z,35.30
2019-04-25T14:05:35.298Z,37.00
2019-04-25T14:08:07.029Z,38.90
2019-04-25T14:10:39.089Z,38.10
2019-04-25T14:13:11.104Z,39.60
2019-04-25T14:15:47.910Z,39.90
2019-04-25T14:18:53.556Z,42.00
2019-04-25T14:21:26.125Z,41.70
2019-04-25T14:23:58.727Z,39.90
2019-04-25T14:26:31.290Z,37.40
2019-04-25T14:29:04.249Z,38.30
2019-04-25T14:31:45.460Z,37.80
2019-04-25T14:34:09.985Z,37.10
2019-04-25T14:36:41.658Z,36.10
2019-04-25T14:39:15.137Z,36.10
2019-04-25T14:41:49.785Z,36.60
2019-04-25T14:44:22.281Z,36.70
2019-04-25T14:46:55.051Z,33.60
2019-04-25T14:49:26.998Z,34.50
2019-04-25T14:51:58.574Z,33.90
2019-04-25T14:54:36.982Z,34.50
2019-04-25T14:57:16.915Z,34.50
2019-04-25T14:59:48.596Z,34.10
2019-04-25T15:02:22.638Z,35.10
2019-04-25T15:04:53.958Z,34.50
2019-04-25T15:07:25.413Z,35.70
2019-04-25T15:09:56.859Z,34.10
2019-04-25T15:12:29.350Z,34.30
2019-04-25T15:15:00.782Z,33.30
2019-04-25T15:17:43.909Z,33.00
2019-04-25T15:20:06.990Z,32.50
2019-04-25T15:22:38.961Z,32.50
2019-04-25T15:25:10.781Z,31.10
2019-04-25T15:27:42.194Z,29.60
2019-04-25T15:30:18.857Z,30.10
2019-04-25T15:32:50.391Z,29.90
2019-04-25T15:35:24.642Z,29.80
2019-04-25T15:38:05.066Z,29.60
2019-04-25T15:40:42.058Z,29.40
2019-04-25T15:43:36.410Z,30.00
2019-04-25T15:46:16.406Z,28.90
2019-04-25T15:48:48.217Z,29.20
2019-04-25T15:51:19.600Z,29.70
2019-04-25T15:53:50.924Z,29.30
2019-04-25T15:56:22.374Z,29.70
2019-04-25T15:58:54.175Z,29.70
2019-04-25T16:01:26.497Z,29.10
2019-04-25T16:03:58.211Z,29.30
2019-04-25T16:06:30.055Z,29.30
2019-04-25T16:09:01.460Z,29.80
2019-04-25T16:11:35.103Z,29.40
2019-04-25T16:14:06.665Z,29.30
2019-04-25T16:16:38.435Z,30.00
2019-04-25T16:19:10.006Z,30.30
2019-04-25T16:21:42.235Z,30.60
2019-04-25T16:24:13.733Z,29.10
2019-04-25T16:26:45.101Z,29.90
2019-04-25T16:29:16.376Z,30.20
2019-04-25T16:31:47.813Z,31.20
2019-04-25T16:34:19.150Z,31.10
2019-04-25T16:36:50.585Z,31.60
2019-04-25T16:39:24.122Z,32.10
2019-04-25T16:41:55.619Z,33.00
2019-04-25T16:44:27.641Z,33.00
2019-04-25T16:47:00.079Z,33.20
2019-04-25T16:49:32.558Z,32.70
2019-04-25T16:52:05.754Z,32.30
2019-04-25T16:54:38.080Z,32.10
2019-04-25T16:57:09.540Z,32.60
2019-04-25T16:59:40.798Z,33.00
2019-04-25T17:02:12.325Z,33.50
2019-04-25T17:04:43.899Z,32.90
2019-04-25T17:07:15.754Z,33.80
2019-04-25T17:09:47.365Z,33.80
2019-04-25T17:12:19.720Z,33.40
2019-04-25T17:15:09.962Z,33.90
2019-04-25T17:18:04.423Z,33.80
2019-04-25T17:20:40.611Z,33.90
2019-04-25T17:23:12.982Z,34.70
2019-04-25T17:25:44.395Z,34.80
2019-04-25T17:28:17.422Z,35.20
2019-04-25T17:30:52.572Z,35.20
2019-04-25T17:33:35.683Z,35.30
2019-04-25T17:36:15.556Z,35.50
2019-04-25T17:38:54.457Z,36.20
2019-04-25T17:41:26.151Z,36.40
2019-04-25T17:43:57.519Z,37.30
2019-04-25T17:46:28.736Z,39.50
2019-04-25T17:49:00.027Z,38.90
2019-04-25T17:51:32.263Z,40.50
2019-04-25T17:54:05.220Z,41.20
2019-04-25T17:56:36.649Z,41.60
2019-04-25T17:59:09.143Z,42.70
2019-04-25T18:01:40.745Z,43.60
2019-04-25T18:04:12.405Z,44.40
2019-04-25T18:06:44.384Z,44.80
2019-04-25T18:09:15.867Z,45.60
2019-04-25T18:11:47.666Z,46.50
2019-04-25T18:14:19.009Z,47.40
2019-04-25T18:16:52.413Z,48.30
2019-04-25T18:19:29.808Z,48.90
2019-04-25T18:22:12.215Z,50.10
2019-04-25T18:25:05.937Z,49.80
2019-04-25T18:27:56.185Z,50.30
2019-04-25T18:30:27.957Z,50.30
2019-04-25T18:33:11.916Z,51.60
2019-04-25T18:35:44.604Z,52.00
2019-04-25T18:38:23.459Z,53.20
2019-04-25T18:41:02.195Z,55.00
2019-04-25T18:43:47.127Z,55.30
2019-04-25T18:46:40.503Z,54.50
2019-04-25T18:49:12.392Z,54.60
2019-04-25T18:51:55.103Z,55.30
2019-04-25T18:54:30.619Z,55.40
2019-04-25T18:57:12.375Z,56.00
2019-04-25T19:00:05.979Z,55.80
2019-04-25T19:03:00.787Z,56.60
2019-04-25T19:05:57.276Z,57.80
2019-04-25T19:08:28.992Z,57.90
2019-04-25T19:11:00.823Z,58.70
2019-04-25T19:13:33.071Z,58.70
2019-04-25T19:16:04.581Z,59.30
2019-04-25T19:18:36.057Z,59.80
2019-04-25T19:21:08.279Z,60.60
2019-04-25T19:23:41.743Z,59.90
2019-04-25T19:26:14.260Z,61.00
2019-04-25T19:28:46.861Z,61.70
2019-04-25T19:31:18.371Z,61.90
2019-04-25T19:33:49.930Z,62.80
2019-04-25T19:36:21.528Z,62.40
2019-04-25T19:38:53.537Z,62.60
2019-04-25T19:41:31.326Z,63.10
2019-04-25T19:44:08.205Z,63.60
2019-04-25T19:46:44.906Z,64.60
2019-04-25T19:49:16.682Z,64.90
2019-04-25T19:51:48.051Z,64.70
2019-04-25T19:54:19.508Z,65.80
2019-04-25T19:56:51.770Z,65.20
2019-04-25T19:59:23.614Z,64.70
2019-04-25T20:01:57.073Z,66.50
2019-04-25T20:04:37.958Z,67.10
2019-04-25T20:07:21.273Z,67.20
2019-04-25T20:10:21.073Z,67.80
2019-04-25T20:12:53.529Z,68.40
2019-04-25T20:15:33.405Z,69.20
2019-04-25T20:18:05.989Z,69.50
2019-04-25T20:20:37.509Z,69.30
2019-04-25T20:23:08.825Z,70.90
2019-04-25T20:25:40.291Z,72.40
2019-04-25T20:28:11.824Z,73.40
2019-04-25T20:30:44.537Z,75.40
2019-04-25T20:33:16.988Z,73.80
2019-04-25T20:35:49.387Z,72.70
2019-04-25T20:38:20.722Z,74.30
2019-04-25T20:40:52.674Z,74.10
2019-04-25T20:43:24.307Z,74.00
2019-04-25T20:45:56.526Z,74.70
2019-04-25T20:48:28.051Z,73.90
2019-04-25T20:50:59.801Z,76.00
2019-04-25T20:53:31.479Z,75.60
2019-04-25T20:56:03.146Z,78.00
2019-04-25T20:58:53.516Z,78.50
2019-04-25T21:01:44.585Z,79.80
2019-04-25T21:04:34.834Z,79.30
2019-04-25T21:07:13.169Z,82.30
2019-04-25T21:09:44.536Z,83.80
2019-04-25T21:12:15.976Z,86.40
2019-04-25T21:15:06.623Z,88.80
2019-04-25T21:18:06.264Z,89.20
2019-04-25T21:20:37.800Z,90.40
2019-04-25T21:23:09.086Z,90.80
2019-04-25T21:25:40.457Z,91.20
2019-04-25T21:28:13.483Z,90.50
2019-04-25T21:30:44.924Z,90.70
2019-04-25T21:33:16.549Z,91.50
2019-04-25T21:35:48.099Z,91.50
2019-04-25T21:38:20.060Z,91.90
2019-04-25T21:41:10.188Z,91.40
2019-04-25T21:43:46.983Z,92.20
2019-04-25T21:46:19.703Z,92.30
2019-04-25T21:48:53.407Z,93.10
2019-04-25T21:51:34.264Z,93.90
2019-04-25T21:54:05.907Z,93.60
2019-04-25T21:56:37.615Z,93.90
2019-04-25T21:59:09.270Z,94.50
2019-04-25T22:01:41.947Z,94.60
2019-04-25T22:04:13.580Z,94.70
2019-04-25T22:06:45.452Z,95.30
2019-04-25T22:09:19.381Z,94.90
2019-04-25T22:11:51.477Z,95.70
2019-04-25T22:14:23.438Z,95.30
2019-04-25T22:16:55.478Z,96.90
2019-04-25T22:19:28.054Z,96.00
2019-04-25T22:22:00.596Z,96.70
2019-04-25T22:24:32.129Z,97.60
2019-04-25T22:27:06.174Z,97.10
2019-04-25T22:29:42.020Z,96.60
2019-04-25T22:32:27.870Z,96.40
2019-04-25T22:35:07.971Z,96.30
2019-04-25T22:37:39.510Z,97.80
2019-04-25T22:40:11.635Z,98.40
2019-04-25T22:42:43.427Z,98.70
2019-04-25T22:45:15.195Z,99.00
2019-04-25T22:47:46.905Z,98.90
2019-04-25T22:50:18.466Z,98.60
2019-04-25T22:52:50.191Z,99.20
2019-04-25T22:55:21.716Z,99.50
2019-04-25T22:57:53.014Z,98.00
2019-04-25T23:00:28.849Z,98.00
2019-04-25T23:03:05.892Z,97.40
2019-04-25T23:05:42.834Z,97.20
2019-04-25T23:08:14.550Z,98.30
2019-04-25T23:10:46.247Z,98.50
2019-04-25T23:13:19.246Z,99.10
2019-04-25T23:15:50.551Z,99.60
2019-04-25T23:18:22.394Z,99.90
2019-04-25T23:20:53.838Z,99.90
2019-04-25T23:23:25.465Z,99.90
2019-04-25T23:26:08.980Z,99.90
2019-04-25T23:28:42.592Z,99.90
2019-04-25T23:31:18.739Z,99.90
2019-04-25T23:33:51.127Z,99.90
2019-04-25T23:36:22.841Z,99.90
2019-04-25T23:38:54.364Z,99.90
2019-04-25T23:41:26.211Z,99.90
2019-04-25T23:43:57.579Z,99.90
2019-04-25T23:46:29.545Z,99.00
2019-04-25T23:49:00.944Z,98.60
2019-04-25T23:51:32.638Z,98.40
2019-04-25T23:54:05.304Z,97.20
2019-04-25T23:56:36.961Z,97.40
2019-04-25T23:59:11.489Z,98.40
